Time;durP1;ratioP1;P1;durP2;ratioP2;P2;SDS_P1;SDS_P2;PMS_P1;PMS_P2;Temp;Humidity;BMP_temperature;BMP_pressure;BME280_temperature;BME280_humidity;BME280_pressure;Samples;Min_cycle;Max_cycle;Signal;HPM_P1;HPM_P2
2024/03/22 00:00:56;;;;;;;19.37;12.83;;;;;22.10;101073.00;;;;2055452;28;20214;-55
2024/03/22 00:01:57;;;;;;;18.33;12.57;;;;;22.10;101067.00;;;;2052346;28;20226;-53
2024/03/22 00:02:57;;;;;;;18.50;12.20;;;;;21.80;101073.00;;;;2044824;28;20299;-54
2024/03/22 00:03:57;;;;;;;17.57;12.73;;;;;22.10;101077.00;;;;2055766;28;20301;-54
2024/03/22 00:04:58;;;;;;;19.73;12.73;;;;;22.10;101069.00;;;;2056983;28;20214;-55
2024/03/22 00:05:58;;;;;;;17.87;11.83;;;;;22.10;101070.00;;;;2055920;28;20204;-56
2024/03/22 00:06:58;;;;;;;17.03;11.93;;;;;22.10;101071.00;;;;2055507;28;20203;-56
2024/03/22 00:07:59;;;;;;;18.47;12.80;;;;;22.10;101062.00;;;;2043927;28;20223;-53
2024/03/22 00:08:59;;;;;;;17.40;11.93;;;;;22.10;101067.00;;;;2052928;28;20294;-55
2024/03/22 00:09:59;;;;;;;16.87;12.03;;;;;22.10;101066.00;;;;2056397;28;20210;-55
2024/03/22 00:11:00;;;;;;;15.97;10.70;;;;;22.10;101068.00;;;;2054285;28;20216;-53
2024/03/22 00:12:00;;;;;;;15.40;10.90;;;;;22.10;101064.00;;;;2055918;28;20214;-53
2024/03/22 00:13:00;;;;;;;19.37;13.00;;;;;22.10;101057.00;;;;2046830;28;20314;-55
2024/03/22 00:14:01;;;;;;;17.17;11.90;;;;;22.10;101060.00;;;;2055417;28;20230;-55
2024/03/22 00:15:02;;;;;;;18.35;11.68;;;;;22.10;101060.00;;;;2056814;28;20227;-53
2024/03/22 00:16:02;;;;;;;17.70;12.40;;;;;22.10;101064.00;;;;2053610;28;20230;-54
2024/03/22 00:17:03;;;;;;;18.40;12.60;;;;;22.10;101053.00;;;;2056061;28;20298;-54
2024/03/22 00:18:03;;;;;;;18.20;11.70;;;;;22.10;101051.00;;;;2041935;28;20227;-54
2024/03/22 00:19:03;;;;;;;20.90;13.13;;;;;22.10;101060.00;;;;2056471;28;20400;-54
2024/03/22 00:20:04;;;;;;;17.53;11.27;;;;;22.00;101064.00;;;;2056094;28;20215;-56
2024/03/22 00:21:05;;;;;;;18.87;12.17;;;;;22.10;101057.00;;;;2053526;28;20218;-56
2024/03/22 00:22:05;;;;;;;19.80;11.73;;;;;22.00;101048.00;;;;2056699;28;20814;-56
2024/03/22 00:23:05;;;;;;;19.63;12.53;;;;;22.10;101053.00;;;;2047248;28;20223;-56
2024/03/22 00:24:06;;;;;;;18.13;12.03;;;;;22.00;101033.00;;;;2059490;28;20220;-54
2024/03/22 00:25:07;;;;;;;17.33;11.67;;;;;22.00;101043.00;;;;2059438;28;20217;-54
2024/03/22 00:26:07;;;;;;;17.10;11.63;;;;;22.00;101053.00;;;;2053178;28;20221;-54
2024/03/22 00:27:07;;;;;;;17.63;11.77;;;;;22.00;101046.00;;;;2057064;28;20625;-55
2024/03/22 00:28:08;;;;;;;16.07;11.40;;;;;22.00;101038.00;;;;2046240;28;20297;-54
2024/03/22 00:29:08;;;;;;;15.23;10.87;;;;;22.00;101041.00;;;;2056627;28;20631;-55
2024/03/22 00:30:08;;;;;;;16.17;11.50;;;;;22.00;101053.00;;;;2055977;28;20223;-55
2024/03/22 00:31:09;;;;;;;14.50;11.47;;;;;22.00;101036.00;;;;2057158;28;20226;-53
2024/03/22 00:32:09;;;;;;;19.37;11.87;;;;;22.00;101039.00;;;;2058316;28;20765;-54
2024/03/22 00:33:10;;;;;;;16.93;10.97;;;;;22.00;101031.00;;;;2046920;28;20699;-55
2024/03/22 00:34:10;;;;;;;18.13;11.03;;;;;22.00;101033.00;;;;2057858;28;20707;-56
2024/03/22 00:35:10;;;;;;;17.67;11.03;;;;;22.00;101034.00;;;;2056700;28;21173;-55
2024/03/22 00:36:11;;;;;;;15.60;10.37;;;;;22.00;101028.00;;;;2058397;28;20594;-54
2024/03/22 00:37:11;;;;;;;17.17;11.10;;;;;22.00;101021.00;;;;2058210;28;20350;-55
2024/03/22 00:38:11;;;;;;;16.70;12.03;;;;;22.00;101018.00;;;;2044734;28;20223;-53
2024/03/22 00:39:12;;;;;;;16.70;10.83;;;;;22.00;101024.00;;;;2057639;28;20223;-54
2024/03/22 00:40:13;;;;;;;15.10;10.63;;;;;22.00;101025.00;;;;2057338;28;20218;-54
2024/03/22 00:41:13;;;;;;;15.67;11.17;;;;;22.00;101025.00;;;;2058188;28;20365;-55
2024/03/22 00:42:13;;;;;;;18.70;11.00;;;;;22.00;101022.00;;;;2056868;28;20230;-53
2024/03/22 00:43:14;;;;;;;13.70;9.53;;;;;22.00;101017.00;;;;2046080;28;20219;-53
2024/03/22 00:44:14;;;;;;;20.00;11.30;;;;;22.00;101019.00;;;;2058043;28;20218;-54
2024/03/22 00:45:14;;;;;;;16.10;11.37;;;;;22.00;101013.00;;;;2056410;28;20219;-54
2024/03/22 00:46:15;;;;;;;15.30;10.30;;;;;22.00;101010.00;;;;2057536;28;20219;-54
2024/03/22 00:47:15;;;;;;;14.87;9.90;;;;;22.00;101002.00;;;;2052563;28;20985;-55
2024/03/22 00:48:15;;;;;;;16.60;11.20;;;;;22.00;101020.00;;;;2044849;28;20708;-54
2024/03/22 00:49:16;;;;;;;14.93;10.10;;;;;22.00;101023.00;;;;2053156;28;20726;-54
2024/03/22 00:50:16;;;;;;;18.80;10.93;;;;;22.00;100989.00;;;;2054680;28;20745;-53
2024/03/22 00:51:16;;;;;;;13.57;9.37;;;;;22.00;101011.00;;;;2059512;28;20625;-54
2024/03/22 00:52:17;;;;;;;16.03;10.53;;;;;22.00;101013.00;;;;2056438;28;20298;-54
2024/03/22 00:53:17;;;;;;;16.73;9.47;;;;;22.00;101002.00;;;;2048324;28;20241;-53
2024/03/22 00:54:18;;;;;;;14.00;10.40;;;;;21.60;101009.00;;;;2055590;28;20218;-54
2024/03/22 00:55:19;;;;;;;12.75;9.40;;;;;22.00;101005.00;;;;2058068;28;20305;-54
2024/03/22 00:56:19;;;;;;;14.83;9.40;;;;;22.00;101005.00;;;;2058049;28;20683;-54
2024/03/22 00:57:20;;;;;;;13.97;8.83;;;;;22.00;101002.00;;;;2057032;28;20215;-54
2024/03/22 00:58:20;;;;;;;14.30;10.00;;;;;22.00;101007.00;;;;2046978;28;20219;-54
2024/03/22 00:59:21;;;;;;;14.40;9.90;;;;;22.00;101071.00;;;;2055311;28;20204;-53
2024/03/22 01:00:21;;;;;;;14.53;9.00;;;;;21.90;100998.00;;;;2058494;28;20348;-53
2024/03/22 01:01:21;;;;;;;13.57;9.63;;;;;21.90;101002.00;;;;2058228;28;20210;-55
2024/03/22 01:02:22;;;;;;;13.60;9.03;;;;;22.00;100997.00;;;;2057415;28;20301;-54
2024/03/22 01:03:23;;;;;;;13.83;9.37;;;;;21.90;100991.00;;;;2045902;28;20214;-56
2024/03/22 01:04:23;;;;;;;16.20;10.50;;;;;21.90;100985.00;;;;2056920;28;20738;-54
2024/03/22 01:05:23;;;;;;;16.13;9.37;;;;;21.90;100989.00;;;;2057865;28;20474;-53
2024/03/22 01:06:25;;;;;;;13.13;9.37;;;;;21.90;100985.00;;;;2055150;28;20211;-59
2024/03/22 01:07:25;;;;;;;13.00;8.93;;;;;21.90;100991.00;;;;2059600;28;20202;-55
2024/03/22 01:08:25;;;;;;;13.10;9.27;;;;;21.90;100992.00;;;;2048076;28;20226;-53
2024/03/22 01:09:26;;;;;;;13.57;9.60;;;;;21.90;100990.00;;;;2051127;28;20283;-54
2024/03/22 01:10:27;;;;;;;13.47;8.73;;;;;21.90;100989.00;;;;2055679;28;20699;-53
2024/03/22 01:11:27;;;;;;;13.37;9.00;;;;;21.90;100994.00;;;;2050934;28;20566;-55
2024/03/22 01:12:27;;;;;;;13.07;8.77;;;;;21.90;100981.00;;;;2054942;28;21000;-54
2024/03/22 01:13:28;;;;;;;13.77;9.70;;;;;21.90;100982.00;;;;2047569;28;20575;-53
2024/03/22 01:14:28;;;;;;;13.40;9.50;;;;;21.90;100985.00;;;;2057756;28;20218;-53
2024/03/22 01:15:28;;;;;;;12.90;9.20;;;;;21.90;100983.00;;;;2058156;28;20222;-55
2024/03/22 01:16:29;;;;;;;15.23;9.00;;;;;21.90;100984.00;;;;2056712;28;20222;-53
2024/03/22 01:17:29;;;;;;;13.47;9.10;;;;;21.90;100982.00;;;;2053493;28;20220;-55
2024/03/22 01:18:29;;;;;;;12.73;8.80;;;;;21.90;100980.00;;;;2042059;28;20294;-54
2024/03/22 01:19:29;;;;;;;12.57;8.40;;;;;21.90;100974.00;;;;2062722;28;20276;-54
2024/03/22 01:20:30;;;;;;;15.17;9.40;;;;;21.90;100982.00;;;;2057705;28;20289;-54
2024/03/22 01:21:30;;;;;;;12.23;8.40;;;;;21.90;100978.00;;;;2055938;28;20245;-55
2024/03/22 01:22:31;;;;;;;13.20;8.90;;;;;21.50;100970.00;;;;2057619;28;20222;-54
2024/03/22 01:23:31;;;;;;;12.93;8.43;;;;;21.90;100965.00;;;;2058118;23;22474;-58
2024/03/22 01:24:31;;;;;;;12.87;9.03;;;;;21.90;100960.00;;;;2052687;28;20215;-59
2024/03/22 01:25:31;;;;;;;13.73;8.73;;;;;21.90;100943.00;;;;2051273;28;20239;-57
2024/03/22 01:26:32;;;;;;;13.73;9.07;;;;;21.90;100968.00;;;;2049127;28;20216;-58
2024/03/22 01:27:32;;;;;;;12.77;8.93;;;;;21.90;100968.00;;;;2042461;28;20647;-59
2024/03/22 01:28:32;;;;;;;12.97;8.73;;;;;21.90;100958.00;;;;2034299;28;20220;-56
2024/03/22 01:29:33;;;;;;;15.53;8.77;;;;;21.90;100965.00;;;;2046050;28;20216;-58
2024/03/22 01:30:34;;;;;;;11.13;7.80;;;;;21.90;100963.00;;;;2044759;28;20220;-58
2024/03/22 01:31:34;;;;;;;12.30;7.70;;;;;21.90;100954.00;;;;2044223;28;20296;-57
2024/03/22 01:32:35;;;;;;;13.40;8.60;;;;;21.90;100956.00;;;;2037074;28;20466;-57
2024/03/22 01:33:35;;;;;;;12.63;8.25;;;;;21.90;100966.00;;;;2051102;28;20239;-58
2024/03/22 01:34:36;;;;;;;14.13;8.70;;;;;21.90;100948.00;;;;2049945;28;20208;-57
2024/03/22 01:35:36;;;;;;;12.50;7.93;;;;;21.90;100947.00;;;;2044050;28;20426;-59
2024/03/22 01:36:36;;;;;;;11.53;7.80;;;;;21.90;100941.00;;;;2048958;28;20212;-56
2024/03/22 01:37:37;;;;;;;11.83;7.50;;;;;21.90;100945.00;;;;2034458;28;20751;-59
2024/03/22 01:38:37;;;;;;;10.93;8.00;;;;;21.90;100952.00;;;;2046929;28;20634;-58
2024/03/22 01:39:37;;;;;;;10.20;7.47;;;;;21.90;100949.00;;;;2048998;28;20674;-59
2024/03/22 01:40:38;;;;;;;11.30;7.33;;;;;21.90;100949.00;;;;2043869;28;20212;-58
2024/03/22 01:41:38;;;;;;;10.23;7.83;;;;;21.90;100948.00;;;;2046369;28;20617;-59
2024/03/22 01:42:38;;;;;;;13.13;8.00;;;;;21.90;100934.00;;;;2040794;28;20335;-59
2024/03/22 01:43:39;;;;;;;9.50;7.07;;;;;21.80;100941.00;;;;2049770;28;20437;-59
2024/03/22 01:44:39;;;;;;;12.20;8.10;;;;;21.80;100938.00;;;;2050322;28;20226;-59
2024/03/22 01:45:39;;;;;;;12.10;8.07;;;;;21.80;100997.00;;;;2043097;28;20220;-59
2024/03/22 01:46:41;;;;;;;9.90;7.20;;;;;21.80;100936.00;;;;2048441;28;20651;-59
2024/03/22 01:47:41;;;;;;;13.98;8.48;;;;;21.90;100932.00;;;;2034302;28;20220;-59
2024/03/22 01:48:41;;;;;;;11.43;7.50;;;;;21.90;100934.00;;;;2045162;28;20231;-59
2024/03/22 01:49:42;;;;;;;11.30;8.03;;;;;21.80;100894.00;;;;2050211;28;20856;-58
2024/03/22 01:50:43;;;;;;;10.50;7.77;;;;;21.80;100923.00;;;;2049636;28;20668;-56
2024/03/22 01:51:43;;;;;;;12.32;7.75;;;;;21.90;100914.00;;;;2036508;28;20217;-59
2024/03/22 01:52:44;;;;;;;10.07;7.57;;;;;21.90;100932.00;;;;2039977;28;20540;-58
2024/03/22 01:53:44;;;;;;;11.33;7.83;;;;;21.80;100930.00;;;;2047918;28;20299;-56
2024/03/22 01:54:44;;;;;;;11.93;7.43;;;;;21.20;100924.00;;;;2042974;28;20220;-57
2024/03/22 01:55:45;;;;;;;9.53;6.97;;;;;21.90;100917.00;;;;2049790;28;20227;-58
2024/03/22 01:56:45;;;;;;;12.10;7.83;;;;;21.80;100912.00;;;;2044370;28;20369;-59
2024/03/22 01:57:46;;;;;;;11.53;7.67;;;;;21.90;100918.00;;;;2035534;28;20208;-56
2024/03/22 01:58:46;;;;;;;12.33;7.90;;;;;20.50;100917.00;;;;2048335;28;20462;-55
2024/03/22 01:59:46;;;;;;;11.40;7.50;;;;;21.80;100902.00;;;;2041536;28;20291;-56
2024/03/22 02:00:47;;;;;;;10.90;6.97;;;;;21.80;100914.00;;;;2049043;28;20315;-56
2024/03/22 02:01:49;;;;;;;9.57;6.53;;;;;21.80;100910.00;;;;2042245;28;20208;-57
2024/03/22 02:02:49;;;;;;;10.25;7.38;;;;;21.80;100909.00;;;;2033642;28;20837;-56
2024/03/22 02:03:49;;;;;;;11.43;7.97;;;;;21.80;100903.00;;;;2050414;28;20212;-58
2024/03/22 02:04:53;;;;;;;11.13;7.00;;;;;21.80;100924.00;;;;2050567;28;20216;-58
2024/03/22 02:05:53;;;;;;;10.93;6.85;;;;;21.80;100904.00;;;;2049205;28;20206;-57
2024/03/22 02:06:54;;;;;;;9.60;6.50;;;;;21.80;100904.00;;;;2050043;28;20282;-58
2024/03/22 02:07:54;;;;;;;9.80;6.90;;;;;21.80;100897.00;;;;2040110;28;20396;-56
2024/03/22 02:08:55;;;;;;;10.17;6.90;;;;;21.80;100902.00;;;;2050748;28;20208;-58
2024/03/22 02:09:55;;;;;;;10.70;6.40;;;;;21.80;100894.00;;;;2048318;28;20200;-56
2024/03/22 02:10:55;;;;;;;10.67;6.90;;;;;21.10;100890.00;;;;2046309;28;21744;-58
2024/03/22 02:11:56;;;;;;;9.90;6.23;;;;;21.80;100900.00;;;;2043416;28;20204;-58
2024/03/22 02:12:56;;;;;;;10.80;7.10;;;;;21.80;100891.00;;;;2038146;28;20351;-58
2024/03/22 02:13:56;;;;;;;11.30;7.53;;;;;21.80;100889.00;;;;2042159;28;20208;-56
2024/03/22 02:15:00;;;;;;;10.83;7.30;;;;;21.80;100915.00;;;;2045069;28;20235;-59
2024/03/22 02:16:03;;;;;;;8.93;6.45;;;;;21.80;100886.00;;;;2049954;28;20216;-58
2024/03/22 02:17:03;;;;;;;11.00;6.75;;;;;21.80;100886.00;;;;2049011;28;20207;-58
2024/03/22 02:18:04;;;;;;;9.67;6.43;;;;;21.80;100892.00;;;;2039220;28;20635;-59
2024/03/22 02:19:04;;;;;;;10.83;6.73;;;;;21.80;100889.00;;;;2045102;28;20512;-59
2024/03/22 02:20:06;;;;;;;8.50;6.50;;;;;21.80;100896.00;;;;2046530;28;21159;-59
2024/03/22 02:21:06;;;;;;;10.52;6.38;;;;;21.80;100894.00;;;;2045301;28;20200;-58
2024/03/22 02:22:06;;;;;;;9.00;6.10;;;;;21.80;100894.00;;;;2049534;28;20215;-59
2024/03/22 02:23:07;;;;;;;10.40;6.73;;;;;21.80;100889.00;;;;2044677;28;20266;-59
2024/03/22 02:24:07;;;;;;;9.73;6.00;;;;;21.80;100883.00;;;;2056483;28;20278;-58
2024/03/22 02:25:08;;;;;;;10.23;6.23;;;;;21.80;100877.00;;;;2051196;28;20216;-59
2024/03/22 02:26:08;;;;;;;9.07;5.67;;;;;21.80;100896.00;;;;2048751;28;20698;-59
2024/03/22 02:27:08;;;;;;;9.90;6.20;;;;;21.80;100947.00;;;;2044473;28;20614;-58
2024/03/22 02:28:09;;;;;;;9.03;6.03;;;;;21.70;100833.00;;;;2033293;28;20818;-59
2024/03/22 02:29:09;;;;;;;8.00;6.13;;;;;21.80;100677.00;;;;2044833;28;21043;-58
2024/03/22 02:30:09;;;;;;;9.27;6.10;;;;;21.80;100880.00;;;;2044484;28;20243;-58
2024/03/22 02:31:10;;;;;;;8.10;5.90;;;;;21.80;100879.00;;;;2047850;28;20821;-58
2024/03/22 02:32:10;;;;;;;7.70;5.97;;;;;21.80;100878.00;;;;2049903;28;20304;-58
2024/03/22 02:33:10;;;;;;;12.03;6.03;;;;;21.80;100845.00;;;;2036717;28;20718;-58
2024/03/22 02:34:11;;;;;;;9.47;6.13;;;;;21.80;100879.00;;;;2044917;28;21123;-59
2024/03/22 02:35:11;;;;;;;9.23;6.70;;;;;21.70;100884.00;;;;2045626;28;20542;-59
2024/03/22 02:36:11;;;;;;;8.87;5.90;;;;;21.70;100872.00;;;;2049215;28;20203;-59
2024/03/22 02:37:12;;;;;;;11.33;6.07;;;;;21.70;100864.00;;;;2046955;28;20271;-58
2024/03/22 02:38:12;;;;;;;10.00;6.53;;;;;21.70;100873.00;;;;2033081;28;20228;-60
2024/03/22 02:39:13;;;;;;;7.63;5.30;;;;;21.70;100878.00;;;;2056166;28;20329;-57
2024/03/22 02:40:13;;;;;;;8.40;5.90;;;;;21.70;100864.00;;;;2054276;28;20532;-59
2024/03/22 02:41:13;;;;;;;9.03;5.57;;;;;21.80;100868.00;;;;2046400;28;20486;-61
2024/03/22 02:42:14;;;;;;;8.50;5.73;;;;;21.80;100873.00;;;;2045884;28;20211;-59
2024/03/22 02:43:14;;;;;;;8.40;5.67;;;;;21.70;100866.00;;;;2040066;28;20290;-59
2024/03/22 02:44:14;;;;;;;9.40;5.93;;;;;21.70;100861.00;;;;2047206;28;20303;-59
2024/03/22 02:45:15;;;;;;;8.70;5.60;;;;;21.70;100866.00;;;;2045896;28;20216;-59
2024/03/22 02:46:15;;;;;;;8.20;5.83;;;;;21.80;100856.00;;;;2045860;28;20219;-59
2024/03/22 02:47:15;;;;;;;8.50;5.60;;;;;21.80;100847.00;;;;2046239;28;20215;-59
2024/03/22 02:48:16;;;;;;;9.63;6.23;;;;;21.80;100864.00;;;;2040044;28;20258;-59
2024/03/22 02:49:16;;;;;;;8.97;5.77;;;;;21.80;100855.00;;;;2045808;28;20714;-59
2024/03/22 02:50:16;;;;;;;9.33;5.87;;;;;21.70;100858.00;;;;2045534;28;20239;-59
2024/03/22 02:51:17;;;;;;;9.33;5.87;;;;;21.70;100851.00;;;;2049436;28;20218;-59
2024/03/22 02:52:17;;;;;;;9.27;6.27;;;;;21.70;100853.00;;;;2050893;28;20215;-59
2024/03/22 02:53:18;;;;;;;8.20;5.50;;;;;21.70;100852.00;;;;2039714;28;20281;-58
2024/03/22 02:54:18;;;;;;;8.53;5.63;;;;;21.80;100860.00;;;;2050098;28;20220;-59
2024/03/22 02:55:19;;;;;;;9.67;5.60;;;;;21.70;100848.00;;;;2046474;28;20211;-59
2024/03/22 02:56:19;;;;;;;9.90;5.13;;;;;21.70;100848.00;;;;2050186;28;20212;-59
2024/03/22 02:57:21;;;;;;;7.57;5.40;;;;;21.70;100861.00;;;;2050553;28;20294;-59
2024/03/22 02:58:22;;;;;;;8.38;5.85;;;;;21.70;100844.00;;;;2040320;28;20290;-59
2024/03/22 02:59:25;;;;;;;9.27;6.30;;;;;21.70;100843.00;;;;2049451;28;20203;-59
2024/03/22 03:00:26;;;;;;;10.02;5.75;;;;;21.70;100832.00;;;;2049291;28;20451;-64
2024/03/22 03:01:26;;;;;;;8.63;5.40;;;;;21.80;100834.00;;;;2050666;28;20239;-61
2024/03/22 03:02:26;;;;;;;7.27;5.00;;;;;21.70;100834.00;;;;2046544;28;20238;-59
2024/03/22 03:03:26;;;;;;;7.97;5.03;;;;;21.70;100824.00;;;;2040888;28;20219;-59
2024/03/22 03:04:27;;;;;;;8.30;5.80;;;;;21.70;100826.00;;;;2050418;28;20286;-59
2024/03/22 03:05:27;;;;;;;7.50;5.30;;;;;21.70;100834.00;;;;2049032;28;20289;-59
2024/03/22 03:06:28;;;;;;;9.33;5.50;;;;;21.70;100824.00;;;;2045236;28;20219;-59
2024/03/22 03:07:28;;;;;;;8.30;5.63;;;;;21.70;100876.00;;;;2046554;28;20211;-59
2024/03/22 03:08:28;;;;;;;8.73;5.47;;;;;21.70;100818.00;;;;2035194;28;20767;-59
2024/03/22 03:09:29;;;;;;;8.13;5.73;;;;;21.70;100827.00;;;;2045473;28;20253;-59
2024/03/22 03:10:29;;;;;;;10.63;6.20;;;;;21.70;100817.00;;;;2050486;28;20215;-59
2024/03/22 03:11:30;;;;;;;8.43;6.00;;;;;21.70;100814.00;;;;2050529;28;20215;-59
2024/03/22 03:12:30;;;;;;;9.07;5.90;;;;;21.70;100816.00;;;;2049437;28;20223;-59
2024/03/22 03:13:30;;;;;;;7.50;5.03;;;;;21.70;100820.00;;;;2040917;28;20226;-59
2024/03/22 03:14:31;;;;;;;8.17;5.50;;;;;21.70;100822.00;;;;2048449;28;20207;-59
2024/03/22 03:15:31;;;;;;;8.20;5.30;;;;;21.70;100821.00;;;;2050066;28;20295;-59
2024/03/22 03:16:31;;;;;;;9.83;5.77;;;;;21.70;100822.00;;;;2049702;28;20207;-57
2024/03/22 03:17:32;;;;;;;9.37;5.40;;;;;21.70;100825.00;;;;2044582;28;20204;-57
2024/03/22 03:18:32;;;;;;;9.73;5.70;;;;;21.70;100815.00;;;;2037545;28;20270;-58
2024/03/22 03:19:32;;;;;;;9.10;5.60;;;;;21.70;100813.00;;;;2047934;28;20291;-58
2024/03/22 03:20:33;;;;;;;7.30;5.03;;;;;21.70;100820.00;;;;2044788;28;20212;-58
2024/03/22 03:21:33;;;;;;;6.70;4.90;;;;;21.70;100817.00;;;;2044015;28;20226;-58
2024/03/22 03:22:35;;;;;;;6.80;5.00;;;;;21.70;100808.00;;;;2045591;28;20307;-56
2024/03/22 03:23:35;;;;;;;7.63;5.07;;;;;21.70;100805.00;;;;2048707;28;20222;-57
2024/03/22 03:24:35;;;;;;;6.37;4.70;;;;;21.70;100812.00;;;;2049380;28;20582;-58
2024/03/22 03:25:36;;;;;;;8.20;4.80;;;;;21.70;100815.00;;;;2048547;28;20754;-56
2024/03/22 03:26:36;;;;;;;8.67;6.00;;;;;21.70;100805.00;;;;2049509;28;20931;-57
2024/03/22 03:27:36;;;;;;;6.97;4.93;;;;;21.70;100816.00;;;;2035104;28;20218;-56
2024/03/22 03:28:37;;;;;;;8.33;4.57;;;;;21.70;100820.00;;;;2046704;28;20212;-58
2024/03/22 03:29:37;;;;;;;8.40;5.40;;;;;21.70;100812.00;;;;2041215;28;20212;-58
2024/03/22 03:30:37;;;;;;;10.93;6.30;;;;;21.60;100817.00;;;;2048523;28;20234;-58
2024/03/22 03:31:38;;;;;;;7.63;5.40;;;;;21.70;100812.00;;;;2043145;28;20201;-59
2024/03/22 03:32:38;;;;;;;6.90;5.20;;;;;21.70;100813.00;;;;2036066;28;20223;-56
2024/03/22 03:33:38;;;;;;;7.03;4.90;;;;;21.70;100812.00;;;;2048534;28;20222;-57
2024/03/22 03:34:39;;;;;;;8.00;5.37;;;;;21.70;100808.00;;;;2043233;28;20216;-58
2024/03/22 03:35:39;;;;;;;8.00;4.90;;;;;21.70;100805.00;;;;2047174;28;20722;-58
2024/03/22 03:36:39;;;;;;;8.27;5.17;;;;;21.70;100812.00;;;;2043400;28;20282;-56
2024/03/22 03:37:40;;;;;;;6.47;4.63;;;;;21.70;100805.00;;;;2039206;28;20215;-57
2024/03/22 03:38:41;;;;;;;7.60;4.53;;;;;21.70;100803.00;;;;2049229;28;20615;-56
2024/03/22 03:39:41;;;;;;;7.90;5.17;;;;;21.70;100798.00;;;;2043239;28;20216;-58
2024/03/22 03:40:42;;;;;;;6.60;4.90;;;;;21.70;100803.00;;;;2047558;28;20462;-58
2024/03/22 03:41:42;;;;;;;7.33;5.03;;;;;21.70;100794.00;;;;2050581;28;20235;-58
2024/03/22 03:42:42;;;;;;;7.17;4.90;;;;;21.70;100796.00;;;;2040097;28;20216;-58
2024/03/22 03:43:43;;;;;;;6.93;4.40;;;;;21.70;100789.00;;;;2049368;28;20203;-58
2024/03/22 03:44:43;;;;;;;7.33;4.90;;;;;21.60;100793.00;;;;2043624;28;20278;-56
2024/03/22 03:45:43;;;;;;;8.17;5.20;;;;;21.70;100791.00;;;;2048470;28;20215;-57
2024/03/22 03:46:43;;;;;;;9.27;4.87;;;;;21.70;100796.00;;;;2043503;28;20215;-56
2024/03/22 03:47:44;;;;;;;6.80;4.70;;;;;21.70;100793.00;;;;2036628;28;20246;-57
2024/03/22 03:48:44;;;;;;;8.13;4.87;;;;;21.60;100789.00;;;;2049093;28;20222;-58
2024/03/22 03:49:45;;;;;;;6.73;4.63;;;;;21.70;100787.00;;;;2042425;28;20212;-58
2024/03/22 03:50:54;;;;;;;9.10;4.55;;;;;21.70;100752.00;;;;2046806;28;20219;-56
2024/03/22 03:51:54;;;;;;;6.20;4.38;;;;;21.70;100789.00;;;;2048171;28;20211;-59
2024/03/22 03:52:55;;;;;;;9.13;5.07;;;;;21.60;100783.00;;;;2039151;28;20300;-58
2024/03/22 03:53:55;;;;;;;5.90;4.10;;;;;21.70;100786.00;;;;2042497;28;20224;-58
2024/03/22 03:54:55;;;;;;;7.40;4.97;;;;;21.70;100778.00;;;;2048783;28;20976;-56
2024/03/22 03:55:56;;;;;;;6.73;4.70;;;;;21.60;100781.00;;;;2049883;28;20231;-57
2024/03/22 03:56:56;;;;;;;6.90;4.70;;;;;21.60;100762.00;;;;2041525;28;20489;-64
2024/03/22 03:57:57;;;;;;;7.20;4.80;;;;;21.60;100775.00;;;;2033285;28;20224;-57
2024/03/22 03:58:57;;;;;;;7.13;4.40;;;;;21.60;100672.00;;;;2042739;28;20212;-57
2024/03/22 03:59:57;;;;;;;6.67;4.60;;;;;21.60;100785.00;;;;2045387;28;20217;-59
2024/03/22 04:00:58;;;;;;;9.87;5.10;;;;;21.70;100776.00;;;;2042439;28;20244;-59
2024/03/22 04:01:58;;;;;;;7.00;4.37;;;;;21.70;100775.00;;;;2042850;28;20208;-59
2024/03/22 04:02:58;;;;;;;6.93;4.40;;;;;21.60;100775.00;;;;2039780;28;20227;-60
2024/03/22 04:03:59;;;;;;;6.60;4.80;;;;;21.60;100762.00;;;;2042156;28;20271;-58
2024/03/22 04:04:59;;;;;;;7.80;4.70;;;;;21.60;100767.00;;;;2047344;28;20302;-58
2024/03/22 04:05:59;;;;;;;6.87;4.90;;;;;21.60;100757.00;;;;2043390;28;20208;-59
2024/03/22 04:07:00;;;;;;;7.63;4.40;;;;;21.60;100755.00;;;;2048315;28;20999;-61
2024/03/22 04:08:00;;;;;;;6.33;4.30;;;;;21.60;100756.00;;;;2041023;28;20231;-61
2024/03/22 04:09:02;;;;;;;5.90;4.27;;;;;21.60;100754.00;;;;2051438;28;20219;-61
2024/03/22 04:10:03;;;;;;;6.43;4.38;;;;;21.60;100748.00;;;;2050422;28;21033;-59
2024/03/22 04:11:04;;;;;;;5.87;4.23;;;;;21.60;100742.00;;;;2051924;28;20215;-58
2024/03/22 04:12:05;;;;;;;7.25;4.45;;;;;21.60;100732.00;;;;2049223;28;20953;-59
2024/03/22 04:13:05;;;;;;;6.60;3.80;;;;;21.60;100744.00;;;;2036209;28;20216;-58
2024/03/22 04:14:05;;;;;;;6.80;4.47;;;;;21.60;100744.00;;;;2049305;28;20216;-59
2024/03/22 04:15:07;;;;;;;7.13;4.60;;;;;21.70;100736.00;;;;2045503;28;20219;-58
2024/03/22 04:16:08;;;;;;;6.43;4.25;;;;;21.60;100737.00;;;;2049989;28;20222;-60
2024/03/22 04:17:08;;;;;;;5.17;4.03;;;;;21.70;100735.00;;;;2044172;28;20243;-59
2024/03/22 04:18:08;;;;;;;7.30;4.03;;;;;21.70;100729.00;;;;2041661;28;20247;-58
2024/03/22 04:19:09;;;;;;;5.80;4.47;;;;;21.60;100729.00;;;;2048590;28;20226;-59
2024/03/22 04:20:11;;;;;;;7.23;4.37;;;;;21.60;100732.00;;;;2043684;28;20220;-59
2024/03/22 04:21:11;;;;;;;6.15;4.20;;;;;21.60;100726.00;;;;2048251;28;20212;-59
2024/03/22 04:22:11;;;;;;;7.53;3.97;;;;;21.60;100725.00;;;;2051586;28;20246;-58
2024/03/22 04:23:12;;;;;;;5.60;4.07;;;;;21.60;100734.00;;;;2046391;28;20215;-60
2024/03/22 04:24:12;;;;;;;7.20;4.47;;;;;21.60;100726.00;;;;2056095;28;20219;-58
2024/03/22 04:25:12;;;;;;;4.90;3.57;;;;;21.60;100724.00;;;;2052830;28;20416;-58
2024/03/22 04:26:13;;;;;;;8.80;4.20;;;;;21.60;100721.00;;;;2048474;28;20208;-58
2024/03/22 04:27:13;;;;;;;6.73;3.83;;;;;21.60;100718.00;;;;2044023;28;20211;-57
2024/03/22 04:28:13;;;;;;;7.50;5.00;;;;;21.60;100720.00;;;;2036897;28;22874;-57
2024/03/22 04:29:14;;;;;;;7.23;4.33;;;;;21.60;100726.00;;;;2050168;28;20217;-61
2024/03/22 04:30:14;;;;;;;5.87;3.77;;;;;21.60;100723.00;;;;2050855;28;20286;-58
2024/03/22 04:31:15;;;;;;;7.93;4.30;;;;;21.60;100722.00;;;;2049847;28;20214;-58
2024/03/22 04:32:15;;;;;;;6.60;4.28;;;;;21.60;100730.00;;;;2051098;28;20196;-57
2024/03/22 04:33:16;;;;;;;6.27;4.20;;;;;21.60;100720.00;;;;2035127;28;20215;-61
2024/03/22 04:34:16;;;;;;;8.47;4.67;;;;;21.60;100729.00;;;;2048150;28;20345;-59
2024/03/22 04:35:16;;;;;;;6.57;4.40;;;;;21.60;100723.00;;;;2044633;28;20216;-61
2024/03/22 04:36:17;;;;;;;6.13;4.10;;;;;21.60;100738.00;;;;2050367;28;20585;-59
2024/03/22 04:37:17;;;;;;;5.90;4.30;;;;;21.60;100639.00;;;;2048444;28;20939;-58
2024/03/22 04:38:18;;;;;;;6.53;4.30;;;;;21.60;100717.00;;;;2035769;28;20590;-58
2024/03/22 04:39:19;;;;;;;5.03;3.50;;;;;21.60;100711.00;;;;2045787;28;20294;-57
2024/03/22 04:40:20;;;;;;;5.95;3.60;;;;;21.60;100705.00;;;;2047291;28;20641;-57
2024/03/22 04:41:20;;;;;;;6.00;3.87;;;;;21.60;100713.00;;;;2043876;28;20281;-59
2024/03/22 04:42:21;;;;;;;6.10;3.60;;;;;21.60;100710.00;;;;2050804;28;20237;-61
2024/03/22 04:43:22;;;;;;;7.30;4.40;;;;;21.60;100710.00;;;;2039588;28;20220;-58
2024/03/22 04:44:23;;;;;;;5.70;3.45;;;;;21.50;100706.00;;;;2051069;28;20470;-59
2024/03/22 04:45:23;;;;;;;6.80;4.10;;;;;21.60;100704.00;;;;2049796;28;20781;-57
2024/03/22 04:46:23;;;;;;;7.10;4.40;;;;;21.60;100712.00;;;;2047550;28;20699;-59
2024/03/22 04:47:24;;;;;;;6.67;4.20;;;;;21.60;100718.00;;;;2044174;28;20989;-59
2024/03/22 04:48:24;;;;;;;5.77;3.77;;;;;21.60;100708.00;;;;2037601;28;20888;-58
2024/03/22 04:49:24;;;;;;;5.80;3.80;;;;;21.60;100708.00;;;;2046735;28;20691;-57
2024/03/22 04:50:25;;;;;;;6.40;3.47;;;;;21.60;100706.00;;;;2050583;28;20694;-59
2024/03/22 04:51:25;;;;;;;6.73;4.37;;;;;21.60;100701.00;;;;2049899;28;20216;-59
2024/03/22 04:52:25;;;;;;;6.30;3.90;;;;;21.60;100705.00;;;;2048441;28;20224;-58
2024/03/22 04:53:26;;;;;;;7.23;3.87;;;;;21.60;100706.00;;;;2037892;28;20302;-59
2024/03/22 04:54:26;;;;;;;5.03;3.70;;;;;21.60;100701.00;;;;2051430;28;20234;-58
2024/03/22 04:55:26;;;;;;;5.43;3.60;;;;;21.60;100705.00;;;;2048766;28;20677;-59
2024/03/22 04:56:27;;;;;;;6.10;3.60;;;;;21.60;100700.00;;;;2051287;28;20274;-59
2024/03/22 04:57:27;;;;;;;5.93;4.00;;;;;21.60;100691.00;;;;2050016;28;20291;-59